Time;durP1;ratioP1;P1;durP2;ratioP2;P2;SDS_P1;SDS_P2;PMS_P1;PMS_P2;Temp;Humidity;BMP_temperature;BMP_pressure;BME280_temperature;BME280_humidity;BME280_pressure;Samples;Min_cycle;Max_cycle;Signal;HPM_P1;HPM_P2
2022/07/14 00:02:03;;;;;;;5.65;1.70;;;;;;;;;;5059261;28;20052;-80
2022/07/14 00:04:29;;;;;;;3.55;1.60;;;;;;;;;;5042789;28;20037;-80
2022/07/14 00:06:54;;;;;;;3.00;1.20;;;;;;;;;;5040975;28;20159;-80
2022/07/14 00:09:20;;;;;;;4.38;1.50;;;;;;;;;;5040919;28;20136;-79
2022/07/14 00:11:45;;;;;;;2.63;1.30;;;;;;;;;;5039667;28;20052;-80
2022/07/14 00:14:11;;;;;;;5.20;1.55;;;;;;;;;;5039313;28;20029;-80
2022/07/14 00:16:37;;;;;;;2.65;1.38;;;;;;;;;;5023175;28;20037;-79
2022/07/14 00:19:03;;;;;;;4.00;1.27;;;;;;;;;;5040760;28;20065;-80
2022/07/14 00:21:28;;;;;;;2.40;1.23;;;;;;;;;;5020519;28;20033;-79
2022/07/14 00:23:54;;;;;;;3.97;1.30;;;;;;;;;;5040811;28;20060;-80
2022/07/14 00:26:19;;;;;;;2.25;1.30;;;;;;;;;;5041687;28;20087;-81
2022/07/14 00:28:45;;;;;;;4.70;1.38;;;;;;;;;;5020551;28;20103;-81
2022/07/14 00:31:11;;;;;;;5.20;1.40;;;;;;;;;;5036172;28;20175;-80
2022/07/14 00:33:38;;;;;;;5.72;1.50;;;;;;;;;;5039186;28;20049;-80
2022/07/14 00:36:03;;;;;;;4.50;1.52;;;;;;;;;;5039363;28;20039;-80
2022/07/14 00:38:29;;;;;;;3.83;1.38;;;;;;;;;;5038841;28;20399;-80
2022/07/14 00:40:57;;;;;;;4.90;1.20;;;;;;;;;;5038544;28;20025;-80
2022/07/14 00:43:22;;;;;;;3.92;1.50;;;;;;;;;;5040514;28;20040;-79
2022/07/14 00:45:48;;;;;;;3.75;1.58;;;;;;;;;;5039380;28;20068;-80
2022/07/14 00:48:14;;;;;;;4.60;1.27;;;;;;;;;;5028797;28;20087;-80
2022/07/14 00:50:41;;;;;;;3.10;1.35;;;;;;;;;;5028620;28;20053;-80
2022/07/14 00:53:08;;;;;;;3.35;1.50;;;;;;;;;;5021830;28;20033;-80
2022/07/14 00:55:34;;;;;;;4.25;1.67;;;;;;;;;;5050404;28;20484;-80
2022/07/14 00:57:59;;;;;;;3.30;1.65;;;;;;;;;;5037620;28;20041;-81
2022/07/14 01:00:25;;;;;;;3.50;1.50;;;;;;;;;;5038175;28;20025;-79
2022/07/14 01:02:50;;;;;;;2.60;1.60;;;;;;;;;;5036655;28;20087;-79
2022/07/14 01:05:15;;;;;;;3.28;1.50;;;;;;;;;;5015669;28;20033;-79
2022/07/14 01:07:41;;;;;;;3.00;1.40;;;;;;;;;;5035712;28;20029;-79
2022/07/14 01:10:07;;;;;;;6.25;1.38;;;;;;;;;;5035514;28;20061;-79
2022/07/14 01:12:33;;;;;;;2.85;1.48;;;;;;;;;;5034820;28;20037;-80
2022/07/14 01:14:58;;;;;;;2.08;1.40;;;;;;;;;;5034766;28;20112;-80
2022/07/14 01:17:23;;;;;;;2.90;1.30;;;;;;;;;;5035450;28;20028;-80
2022/07/14 01:19:49;;;;;;;4.45;1.50;;;;;;;;;;5017041;28;20026;-80
2022/07/14 01:22:15;;;;;;;3.47;1.65;;;;;;;;;;5015686;28;20048;-80
2022/07/14 01:24:40;;;;;;;4.45;1.55;;;;;;;;;;5042507;28;20119;-80
2022/07/14 01:27:06;;;;;;;4.93;1.63;;;;;;;;;;5043241;28;20400;-80
2022/07/14 01:29:32;;;;;;;3.45;1.50;;;;;;;;;;5017861;28;20025;-80
2022/07/14 01:31:57;;;;;;;2.95;1.27;;;;;;;;;;5042765;28;20040;-79
2022/07/14 01:34:23;;;;;;;4.18;1.70;;;;;;;;;;5040806;28;20060;-80
2022/07/14 01:36:49;;;;;;;5.05;1.20;;;;;;;;;;5002973;28;20049;-80
2022/07/14 01:39:14;;;;;;;6.63;1.55;;;;;;;;;;5034013;28;20436;-80
2022/07/14 01:41:40;;;;;;;2.35;1.40;;;;;;;;;;5014909;28;20037;-80
2022/07/14 01:44:05;;;;;;;7.38;1.50;;;;;;;;;;5032379;28;20077;-79
2022/07/14 01:46:31;;;;;;;3.08;1.52;;;;;;;;;;5036134;28;20408;-79
2022/07/14 01:48:57;;;;;;;4.18;1.75;;;;;;;;;;5015498;28;20036;-79
2022/07/14 01:51:24;;;;;;;8.23;1.83;;;;;;;;;;5034447;28;20039;-79
2022/07/14 01:53:50;;;;;;;3.40;1.77;;;;;;;;;;5054655;28;20088;-79
2022/07/14 01:56:15;;;;;;;4.57;1.60;;;;;;;;;;5049777;28;20084;-79
2022/07/14 01:58:41;;;;;;;7.10;2.03;;;;;;;;;;5043194;28;20025;-80
2022/07/14 02:03:56;;;;;;;3.53;1.60;;;;;;;;;;5038290;28;20036;-79
2022/07/14 02:06:22;;;;;;;4.53;1.88;;;;;;;;;;5048491;28;20029;-80
2022/07/14 02:08:48;;;;;;;4.45;1.52;;;;;;;;;;4999396;28;20512;-79
2022/07/14 02:13:59;;;;;;;4.78;1.58;;;;;;;;;;5040187;28;20043;-80
2022/07/14 02:16:24;;;;;;;4.05;1.48;;;;;;;;;;5028935;28;20538;-80
2022/07/14 02:18:51;;;;;;;3.08;1.50;;;;;;;;;;5052906;28;20496;-80
2022/07/14 02:21:17;;;;;;;3.67;1.52;;;;;;;;;;5056005;28;20021;-78
2022/07/14 02:23:43;;;;;;;4.45;1.63;;;;;;;;;;5040693;28;20045;-80
2022/07/14 02:26:14;;;;;;;2.38;1.38;;;;;;;;;;5037936;28;20032;-79
2022/07/14 02:28:40;;;;;;;3.63;1.40;;;;;;;;;;5052547;28;20045;-80
2022/07/14 02:31:07;;;;;;;3.03;1.40;;;;;;;;;;5056528;28;20438;-79
2022/07/14 02:33:35;;;;;;;2.22;1.10;;;;;;;;;;5052550;28;20033;-80
2022/07/14 02:36:01;;;;;;;4.35;1.50;;;;;;;;;;5026420;28;20102;-80
2022/07/14 02:38:26;;;;;;;4.55;1.70;;;;;;;;;;5052257;28;20156;-80
2022/07/14 02:40:52;;;;;;;3.20;1.42;;;;;;;;;;5052640;28;20484;-79
2022/07/14 02:43:19;;;;;;;5.13;1.92;;;;;;;;;;5052111;28;20120;-80
2022/07/14 02:45:44;;;;;;;4.45;1.50;;;;;;;;;;5052759;28;20053;-79
2022/07/14 02:48:11;;;;;;;3.75;1.50;;;;;;;;;;5020246;28;20032;-79
2022/07/14 02:50:36;;;;;;;3.97;1.40;;;;;;;;;;5036991;28;20056;-80
2022/07/14 02:53:05;;;;;;;2.60;1.20;;;;;;;;;;5053525;28;20033;-80
2022/07/14 02:55:35;;;;;;;2.60;1.40;;;;;;;;;;5042244;28;20072;-79
2022/07/14 02:58:00;;;;;;;3.10;1.25;;;;;;;;;;5017109;28;20018;-79
2022/07/14 03:00:27;;;;;;;4.47;1.45;;;;;;;;;;5027835;28;20037;-80
2022/07/14 03:02:54;;;;;;;3.38;1.50;;;;;;;;;;5053205;28;20021;-80
2022/07/14 03:05:19;;;;;;;5.22;1.67;;;;;;;;;;5049718;28;20032;-79
2022/07/14 03:07:45;;;;;;;4.20;1.25;;;;;;;;;;5037083;28;20029;-78
2022/07/14 03:10:10;;;;;;;2.78;1.45;;;;;;;;;;5016810;28;20397;-79
2022/07/14 03:12:36;;;;;;;2.17;1.25;;;;;;;;;;5013155;28;20038;-79
2022/07/14 03:15:02;;;;;;;4.70;1.50;;;;;;;;;;5007783;28;20033;-80
2022/07/14 03:17:27;;;;;;;8.05;1.60;;;;;;;;;;5037062;28;20389;-80
2022/07/14 03:19:54;;;;;;;8.77;1.90;;;;;;;;;;5025568;28;20124;-80
2022/07/14 03:22:19;;;;;;;4.28;1.30;;;;;;;;;;5001096;28;20494;-80
2022/07/14 03:24:45;;;;;;;3.67;1.60;;;;;;;;;;5015945;28;20132;-80
2022/07/14 03:27:13;;;;;;;4.53;1.40;;;;;;;;;;5046000;28;20033;-80
2022/07/14 03:29:42;;;;;;;3.72;1.50;;;;;;;;;;5009436;28;20029;-81
2022/07/14 03:32:07;;;;;;;3.97;1.67;;;;;;;;;;5003463;28;20041;-80
2022/07/14 03:34:33;;;;;;;4.47;1.60;;;;;;;;;;5009521;28;20110;-80
2022/07/14 03:37:00;;;;;;;2.95;1.33;;;;;;;;;;5037623;28;20040;-80
2022/07/14 03:39:34;;;;;;;4.10;1.40;;;;;;;;;;5057067;28;20033;-80
2022/07/14 03:41:59;;;;;;;4.63;1.80;;;;;;;;;;5024662;28;20088;-79
2022/07/14 03:44:25;;;;;;;3.08;1.50;;;;;;;;;;5057787;28;20033;-81
2022/07/14 03:46:51;;;;;;;9.70;1.75;;;;;;;;;;5040927;28;20040;-79
2022/07/14 03:49:19;;;;;;;4.18;1.42;;;;;;;;;;5055342;28;20025;-80
2022/07/14 03:51:46;;;;;;;4.78;1.33;;;;;;;;;;5053136;28;20037;-79
2022/07/14 03:54:17;;;;;;;4.93;1.40;;;;;;;;;;5046669;28;20163;-80
2022/07/14 03:56:44;;;;;;;5.30;1.50;;;;;;;;;;5026278;28;20025;-80
2022/07/14 03:59:10;;;;;;;5.32;1.45;;;;;;;;;;5041190;28;20396;-80
2022/07/14 04:01:39;;;;;;;4.25;1.48;;;;;;;;;;5031922;28;20029;-80
2022/07/14 04:04:04;;;;;;;5.70;1.50;;;;;;;;;;5055367;28;20396;-80
2022/07/14 04:06:32;;;;;;;4.63;1.27;;;;;;;;;;5043579;28;20025;-79
2022/07/14 04:08:58;;;;;;;4.82;1.40;;;;;;;;;;5037869;28;20442;-80
2022/07/14 04:11:25;;;;;;;4.53;1.80;;;;;;;;;;5055678;28;20060;-80
2022/07/14 04:13:52;;;;;;;2.90;1.05;;;;;;;;;;5025167;28;20064;-80
2022/07/14 04:16:17;;;;;;;4.40;1.42;;;;;;;;;;5038310;28;20037;-80
2022/07/14 04:18:47;;;;;;;3.67;1.40;;;;;;;;;;5054293;28;20480;-80
2022/07/14 04:21:13;;;;;;;7.75;1.40;;;;;;;;;;5038469;28;20025;-80
2022/07/14 04:23:39;;;;;;;3.60;1.50;;;;;;;;;;5023702;28;20060;-79
2022/07/14 04:26:05;;;;;;;6.43;1.40;;;;;;;;;;5052791;28;20048;-79
2022/07/14 04:28:31;;;;;;;7.60;2.63;;;;;;;;;;5036833;28;20171;-79
2022/07/14 04:30:57;;;;;;;7.43;1.50;;;;;;;;;;5015394;28;20072;-79
2022/07/14 04:33:23;;;;;;;7.35;1.40;;;;;;;;;;5048734;28;20484;-79
2022/07/14 04:35:52;;;;;;;4.75;1.35;;;;;;;;;;5055360;28;20048;-79
2022/07/14 04:38:17;;;;;;;4.75;1.40;;;;;;;;;;5037082;28;20032;-79
2022/07/14 04:40:47;;;;;;;3.45;1.25;;;;;;;;;;5039259;28;20028;-79
2022/07/14 04:43:13;;;;;;;4.13;1.20;;;;;;;;;;5037871;28;20031;-79
2022/07/14 04:45:39;;;;;;;3.03;1.20;;;;;;;;;;5054559;28;20119;-80
2022/07/14 04:48:04;;;;;;;4.75;1.40;;;;;;;;;;5036780;28;20124;-80
2022/07/14 04:53:15;;;;;;;8.15;1.50;;;;;;;;;;5052697;28;20123;-79
2022/07/14 04:55:53;;;;;;;5.00;1.50;;;;;;;;;;5038688;28;20033;-81
2022/07/14 04:58:32;;;;;;;5.75;1.63;;;;;;;;;;5045940;28;20021;-80
2022/07/14 05:00:59;;;;;;;4.82;1.35;;;;;;;;;;5031901;28;20033;-80
2022/07/14 05:03:29;;;;;;;3.13;1.30;;;;;;;;;;5053942;28;20017;-80
2022/07/14 05:05:54;;;;;;;8.70;1.20;;;;;;;;;;5054360;28;20120;-80
2022/07/14 05:08:21;;;;;;;5.00;1.60;;;;;;;;;;5054066;28;20036;-80
2022/07/14 05:10:49;;;;;;;3.67;1.35;;;;;;;;;;5035670;28;20053;-80
2022/07/14 05:13:15;;;;;;;4.72;1.40;;;;;;;;;;5021543;28;20061;-80
2022/07/14 05:15:42;;;;;;;3.05;1.50;;;;;;;;;;5020991;28;20067;-81
2022/07/14 05:18:08;;;;;;;4.85;1.60;;;;;;;;;;5042380;28;20404;-81
2022/07/14 05:20:34;;;;;;;7.18;1.80;;;;;;;;;;5039711;28;20028;-81
2022/07/14 05:23:00;;;;;;;6.93;1.52;;;;;;;;;;5024745;28;20017;-80
2022/07/14 05:25:26;;;;;;;4.07;1.40;;;;;;;;;;5013426;28;20041;-80
2022/07/14 05:27:53;;;;;;;8.73;1.88;;;;;;;;;;5034247;28;20117;-80
2022/07/14 05:30:38;;;;;;;5.07;1.38;;;;;;;;;;5023425;28;20377;-81
2022/07/14 05:33:04;;;;;;;5.78;2.60;;;;;;;;;;5001319;28;20041;-80
2022/07/14 05:35:31;;;;;;;10.40;1.90;;;;;;;;;;5033584;28;20104;-80
2022/07/14 05:37:58;;;;;;;6.88;1.63;;;;;;;;;;5017482;28;20029;-80
2022/07/14 05:40:25;;;;;;;38.47;3.65;;;;;;;;;;5033381;28;20087;-80
2022/07/14 05:42:52;;;;;;;24.33;2.70;;;;;;;;;;5017724;28;20026;-81
2022/07/14 05:45:18;;;;;;;8.93;1.63;;;;;;;;;;5014626;28;20022;-80
2022/07/14 05:47:44;;;;;;;8.07;1.92;;;;;;;;;;5026095;28;20063;-80
2022/07/14 05:50:10;;;;;;;7.18;1.95;;;;;;;;;;5013925;28;20125;-80
2022/07/14 05:52:36;;;;;;;4.80;2.00;;;;;;;;;;5026966;28;20056;-79
2022/07/14 05:55:02;;;;;;;6.63;1.60;;;;;;;;;;5034929;28;20022;-79
2022/07/14 05:57:28;;;;;;;3.38;1.70;;;;;;;;;;5034307;28;20549;-81
2022/07/14 05:59:54;;;;;;;5.72;2.00;;;;;;;;;;5035973;28;20049;-82
2022/07/14 06:02:20;;;;;;;6.05;2.28;;;;;;;;;;5014495;28;20057;-81
2022/07/14 06:04:46;;;;;;;8.65;2.20;;;;;;;;;;5000760;28;20024;-81
2022/07/14 06:07:12;;;;;;;10.60;1.83;;;;;;;;;;5035909;28;20480;-82
2022/07/14 06:09:41;;;;;;;8.82;2.00;;;;;;;;;;5018865;28;20390;-81
2022/07/14 06:12:08;;;;;;;11.10;1.98;;;;;;;;;;5029699;28;20548;-79
2022/07/14 06:14:36;;;;;;;5.75;1.45;;;;;;;;;;5035439;28;20040;-80
2022/07/14 06:17:02;;;;;;;3.13;1.50;;;;;;;;;;5037971;28;20120;-81
2022/07/14 06:19:27;;;;;;;8.25;1.70;;;;;;;;;;5018716;28;20060;-81
2022/07/14 06:21:53;;;;;;;6.40;1.80;;;;;;;;;;5016450;28;20084;-80
2022/07/14 06:24:20;;;;;;;3.17;1.20;;;;;;;;;;5030297;28;20017;-82
2022/07/14 06:26:46;;;;;;;2.97;1.40;;;;;;;;;;5052870;28;20041;-81
2022/07/14 06:29:13;;;;;;;2.67;1.40;;;;;;;;;;4998577;28;20025;-80
2022/07/14 06:31:40;;;;;;;4.00;1.63;;;;;;;;;;5040876;28;20064;-81
2022/07/14 06:34:09;;;;;;;5.45;1.50;;;;;;;;;;5041109;28;20033;-83
2022/07/14 06:36:49;;;;;;;4.43;1.40;;;;;;;;;;5036104;28;20116;-82
2022/07/14 06:39:15;;;;;;;3.40;1.00;;;;;;;;;;5033872;28;20107;-82
2022/07/14 06:41:40;;;;;;;3.63;1.35;;;;;;;;;;5034930;28;20492;-80
2022/07/14 06:44:09;;;;;;;5.32;1.40;;;;;;;;;;5014777;28;20121;-80
2022/07/14 06:46:38;;;;;;;3.50;1.42;;;;;;;;;;5014403;28;20048;-82
2022/07/14 06:49:04;;;;;;;6.22;1.30;;;;;;;;;;5036139;28;20033;-79
2022/07/14 06:51:30;;;;;;;3.42;1.20;;;;;;;;;;5035522;28;20086;-81
2022/07/14 06:53:56;;;;;;;2.70;1.15;;;;;;;;;;5042583;28;20103;-81
2022/07/14 06:56:21;;;;;;;4.95;1.35;;;;;;;;;;5047987;28;20024;-80
2022/07/14 06:58:47;;;;;;;5.03;1.30;;;;;;;;;;5035677;28;20034;-81
2022/07/14 07:01:12;;;;;;;3.75;1.20;;;;;;;;;;5032648;28;20060;-80
2022/07/14 07:03:38;;;;;;;3.08;1.40;;;;;;;;;;5035070;28;20049;-82
2022/07/14 07:08:47;;;;;;;6.10;1.35;;;;;;;;;;5032741;28;20497;-81
2022/07/14 07:11:13;;;;;;;2.17;1.10;;;;;;;;;;5034570;28;20044;-79
2022/07/14 07:13:38;;;;;;;2.40;1.38;;;;;;;;;;5033941;28;20037;-82
2022/07/14 07:16:04;;;;;;;2.20;1.08;;;;;;;;;;5020382;28;20127;-84
2022/07/14 07:18:30;;;;;;;2.85;1.20;;;;;;;;;;5021079;28;20132;-81
2022/07/14 07:20:57;;;;;;;4.47;1.30;;;;;;;;;;5021398;28;20068;-81
2022/07/14 07:23:22;;;;;;;2.70;1.20;;;;;;;;;;5038033;28;20037;-81
2022/07/14 07:25:47;;;;;;;2.85;1.30;;;;;;;;;;5037922;28;20044;-80
2022/07/14 07:28:13;;;;;;;3.28;1.10;;;;;;;;;;5037731;28;20120;-82
2022/07/14 07:30:39;;;;;;;4.10;1.13;;;;;;;;;;5037766;28;20033;-81
2022/07/14 07:33:04;;;;;;;3.20;1.10;;;;;;;;;;5036645;28;20059;-80
2022/07/14 07:35:30;;;;;;;2.58;1.17;;;;;;;;;;5037868;28;20049;-81
2022/07/14 07:37:55;;;;;;;4.07;1.23;;;;;;;;;;5048053;28;20040;-79
2022/07/14 07:40:21;;;;;;;2.20;1.10;;;;;;;;;;5056754;28;20079;-81
2022/07/14 07:42:46;;;;;;;3.35;1.08;;;;;;;;;;5056262;28;20098;-81
2022/07/14 07:45:12;;;;;;;1.63;1.00;;;;;;;;;;5051648;28;20077;-81
2022/07/14 07:47:37;;;;;;;3.58;1.10;;;;;;;;;;5019886;28;20045;-81
2022/07/14 07:50:03;;;;;;;1.67;1.00;;;;;;;;;;5036934;28;20032;-81
2022/07/14 07:52:29;;;;;;;3.53;0.82;;;;;;;;;;5036948;28;20111;-80
2022/07/14 07:54:54;;;;;;;3.25;1.15;;;;;;;;;;5036799;28;20485;-82
2022/07/14 07:57:20;;;;;;;1.55;1.00;;;;;;;;;;5038064;28;20129;-80
2022/07/14 07:59:49;;;;;;;2.97;0.95;;;;;;;;;;5020691;28;20028;-80
2022/07/14 08:02:15;;;;;;;2.53;1.10;;;;;;;;;;5036688;28;20065;-80
2022/07/14 08:04:40;;;;;;;2.60;1.00;;;;;;;;;;5054707;28;20025;-80
2022/07/14 08:07:06;;;;;;;2.00;0.90;;;;;;;;;;5056374;28;20028;-81
2022/07/14 08:09:31;;;;;;;1.40;0.85;;;;;;;;;;5055577;28;20397;-80
2022/07/14 08:11:57;;;;;;;2.45;1.00;;;;;;;;;;5045830;28;20037;-79
2022/07/14 08:17:06;;;;;;;1.42;0.90;;;;;;;;;;5033358;28;20143;-81
2022/07/14 08:19:33;;;;;;;2.50;1.08;;;;;;;;;;5028086;28;20083;-82
2022/07/14 08:21:58;;;;;;;1.80;0.90;;;;;;;;;;5036666;28;20132;-81
2022/07/14 08:24:24;;;;;;;2.92;1.08;;;;;;;;;;5034626;28;20063;-81
2022/07/14 08:26:51;;;;;;;2.30;1.10;;;;;;;;;;5015162;28;20481;-81
2022/07/14 08:29:16;;;;;;;1.73;0.90;;;;;;;;;;5042598;28;20032;-81
2022/07/14 08:31:42;;;;;;;1.63;1.10;;;;;;;;;;5047234;28;20172;-81
2022/07/14 08:34:07;;;;;;;2.80;0.93;;;;;;;;;;5031140;28;20028;-81
2022/07/14 08:36:32;;;;;;;1.63;0.80;;;;;;;;;;5055495;28;20122;-81
2022/07/14 08:39:00;;;;;;;2.15;1.00;;;;;;;;;;5023331;28;20029;-80
2022/07/14 08:41:26;;;;;;;1.63;0.93;;;;;;;;;;5053913;28;20401;-79
2022/07/14 08:43:52;;;;;;;1.67;0.90;;;;;;;;;;5054003;28;20059;-83
2022/07/14 08:46:18;;;;;;;2.00;1.10;;;;;;;;;;5041408;28;20114;-81
2022/07/14 08:48:45;;;;;;;3.95;1.20;;;;;;;;;;5054006;28;20025;-81
2022/07/14 08:51:11;;;;;;;2.72;0.90;;;;;;;;;;5054753;28;20389;-82
2022/07/14 08:53:37;;;;;;;1.80;0.90;;;;;;;;;;5040660;28;20052;-81
2022/07/14 08:56:02;;;;;;;2.95;0.80;;;;;;;;;;5042037;28;20060;-82
2022/07/14 08:58:28;;;;;;;1.60;0.80;;;;;;;;;;5036796;28;20021;-82
2022/07/14 09:00:53;;;;;;;2.70;1.00;;;;;;;;;;5054245;28;20125;-81
2022/07/14 09:03:19;;;;;;;1.42;0.80;;;;;;;;;;5037267;28;20024;-80
2022/07/14 09:05:45;;;;;;;3.38;0.90;;;;;;;;;;5055498;28;20542;-80
2022/07/14 09:08:11;;;;;;;1.38;0.82;;;;;;;;;;5024517;28;20029;-80
2022/07/14 09:10:37;;;;;;;1.73;0.93;;;;;;;;;;5047735;28;20081;-80
2022/07/14 09:13:10;;;;;;;1.52;1.10;;;;;;;;;;5048048;28;20098;-80
2022/07/14 09:15:45;;;;;;;2.55;0.80;;;;;;;;;;5054392;28;20051;-80
2022/07/14 09:18:12;;;;;;;1.70;1.00;;;;;;;;;;5021325;28;20036;-82
2022/07/14 09:20:37;;;;;;;1.90;0.90;;;;;;;;;;5037079;28;20029;-81
2022/07/14 09:23:04;;;;;;;1.40;0.90;;;;;;;;;;5044206;28;20048;-80
2022/07/14 09:25:31;;;;;;;1.40;0.90;;;;;;;;;;5034097;28;20092;-81
2022/07/14 09:27:56;;;;;;;1.65;0.90;;;;;;;;;;5014589;28;20406;-81
2022/07/14 09:30:23;;;;;;;5.45;1.20;;;;;;;;;;5033593;28;20116;-83
2022/07/14 09:32:52;;;;;;;3.53;1.00;;;;;;;;;;5035059;28;20072;-83
2022/07/14 09:35:19;;;;;;;2.65;0.98;;;;;;;;;;5018402;28;20025;-81
2022/07/14 09:37:46;;;;;;;1.00;0.88;;;;;;;;;;5034875;28;20409;-81
2022/07/14 09:40:25;;;;;;;2.90;1.00;;;;;;;;;;5034268;28;20041;-82
2022/07/14 09:42:52;;;;;;;1.85;0.90;;;;;;;;;;5001517;28;20037;-81
2022/07/14 09:45:24;;;;;;;2.50;1.10;;;;;;;;;;5035542;28;20026;-81
2022/07/14 09:47:56;;;;;;;2.67;1.20;;;;;;;;;;5035881;28;20041;-81
2022/07/14 09:50:41;;;;;;;3.17;1.05;;;;;;;;;;5035121;28;20029;-84
2022/07/14 09:53:16;;;;;;;3.25;1.00;;;;;;;;;;5035621;28;20042;-82
2022/07/14 09:56:03;;;;;;;1.10;0.77;;;;;;;;;;5035732;28;20032;-81
2022/07/14 09:58:29;;;;;;;1.90;1.10;;;;;;;;;;5033730;28;20544;-83
2022/07/14 10:01:01;;;;;;;1.25;0.85;;;;;;;;;;5037937;28;20060;-83
2022/07/14 10:03:28;;;;;;;1.15;0.90;;;;;;;;;;5036358;28;20072;-81
2022/07/14 10:05:54;;;;;;;3.30;1.00;;;;;;;;;;5038047;28;20026;-82
2022/07/14 10:08:21;;;;;;;3.70;1.08;;;;;;;;;;5036489;28;20536;-83
2022/07/14 10:10:47;;;;;;;4.55;0.85;;;;;;;;;;5036385;28;20057;-81
2022/07/14 10:13:12;;;;;;;1.50;0.90;;;;;;;;;;5019683;28;20123;-82
2022/07/14 10:15:38;;;;;;;1.50;0.80;;;;;;;;;;5018026;28;20036;-81
2022/07/14 10:18:03;;;;;;;1.33;0.85;;;;;;;;;;5014657;28;20183;-79
2022/07/14 10:20:29;;;;;;;1.63;0.90;;;;;;;;;;5033993;28;20437;-81
2022/07/14 10:22:55;;;;;;;3.13;0.80;;;;;;;;;;5036416;28;20033;-81
2022/07/14 10:25:20;;;;;;;1.83;0.80;;;;;;;;;;5047608;28;20431;-81
2022/07/14 10:27:46;;;;;;;2.97;1.00;;;;;;;;;;5035107;28;20041;-83
2022/07/14 10:30:11;;;;;;;2.08;1.00;;;;;;;;;;5001472;28;20120;-82
2022/07/14 10:32:37;;;;;;;2.30;1.30;;;;;;;;;;5034445;28;20029;-82
2022/07/14 10:35:10;;;;;;;3.13;1.00;;;;;;;;;;5033983;28;20030;-81
2022/07/14 10:37:39;;;;;;;2.25;1.08;;;;;;;;;;5033497;28;20042;-80
2022/07/14 10:40:04;;;;;;;2.10;1.00;;;;;;;;;;5034149;28;20029;-81
2022/07/14 10:42:32;;;;;;;1.88;0.88;;;;;;;;;;5018291;28;20034;-85
2022/07/14 10:45:00;;;;;;;1.52;1.02;;;;;;;;;;5001732;28;20048;-80
2022/07/14 10:47:37;;;;;;;2.80;1.00;;;;;;;;;;5036037;28;20570;-84
2022/07/14 10:50:09;;;;;;;2.67;1.25;;;;;;;;;;5034380;28;20086;-80
2022/07/14 10:52:39;;;;;;;2.50;0.90;;;;;;;;;;5005494;28;20037;-80
2022/07/14 10:55:09;;;;;;;2.55;1.13;;;;;;;;;;5038651;28;20030;-81
2022/07/14 10:57:35;;;;;;;1.45;1.00;;;;;;;;;;5039588;28;20037;-81
2022/07/14 11:00:00;;;;;;;2.35;1.10;;;;;;;;;;5006517;28;20031;-81
2022/07/14 11:02:25;;;;;;;1.58;1.00;;;;;;;;;;5039709;28;20042;-84
2022/07/14 11:05:03;;;;;;;4.15;0.95;;;;;;;;;;5039489;28;20025;-81
2022/07/14 11:07:48;;;;;;;2.60;1.10;;;;;;;;;;5036604;28;20040;-81
2022/07/14 11:10:19;;;;;;;1.83;0.93;;;;;;;;;;5039074;28;20121;-81
2022/07/14 11:13:00;;;;;;;2.72;1.00;;;;;;;;;;5022468;28;20033;-83
2022/07/14 11:15:41;;;;;;;2.85;1.27;;;;;;;;;;5040620;28;20057;-81
2022/07/14 11:18:27;;;;;;;2.30;1.15;;;;;;;;;;5012812;28;20081;-81
2022/07/14 11:21:12;;;;;;;4.82;1.38;;;;;;;;;;5022264;28;20557;-81
2022/07/14 11:23:47;;;;;;;1.90;1.10;;;;;;;;;;5039745;28;20520;-81
2022/07/14 11:26:31;;;;;;;2.80;1.05;;;;;;;;;;5059716;28;20440;-82
2022/07/14 11:28:56;;;;;;;2.10;1.02;;;;;;;;;;5055870;28;20033;-84
2022/07/14 11:31:22;;;;;;;2.90;1.40;;;;;;;;;;5022004;28;20040;-83
2022/07/14 11:36:33;;;;;;;3.67;0.98;;;;;;;;;;5037755;28;20515;-81
2022/07/14 11:39:17;;;;;;;2.35;0.98;;;;;;;;;;5050788;28;20025;-82
2022/07/14 11:41:47;;;;;;;2.55;0.90;;;;;;;;;;5052999;28;20036;-80
2022/07/14 11:44:31;;;;;;;1.98;1.00;;;;;;;;;;5057890;28;20025;-82
2022/07/14 11:47:00;;;;;;;3.40;0.90;;;;;;;;;;5057914;28;20044;-82
2022/07/14 11:49:25;;;;;;;2.13;0.90;;;;;;;;;;5056456;28;20489;-81
2022/07/14 11:51:51;;;;;;;2.90;1.00;;;;;;;;;;5057685;28;20151;-81
2022/07/14 11:54:17;;;;;;;1.58;0.93;;;;;;;;;;5041763;28;20139;-82
2022/07/14 11:56:42;;;;;;;1.40;0.80;;;;;;;;;;5059914;28;20029;-82
2022/07/14 11:59:09;;;;;;;1.20;0.80;;;;;;;;;;5056955;28;20033;-81
2022/07/14 12:01:35;;;;;;;1.00;0.70;;;;;;;;;;5055579;28;20048;-82
2022/07/14 12:04:18;;;;;;;2.50;0.88;;;;;;;;;;5040356;28;20021;-81
2022/07/14 12:06:44;;;;;;;3.20;1.20;;;;;;;;;;5033382;28;20131;-82
2022/07/14 12:09:10;;;;;;;1.60;0.70;;;;;;;;;;5054176;28;20630;-81
2022/07/14 12:11:36;;;;;;;3.65;1.00;;;;;;;;;;5045607;28;20041;-82
2022/07/14 12:14:02;;;;;;;1.83;0.80;;;;;;;;;;5042987;28;20126;-82
2022/07/14 12:16:28;;;;;;;2.58;0.90;;;;;;;;;;5049233;28;20125;-82
2022/07/14 12:18:54;;;;;;;2.30;0.90;;;;;;;;;;5021627;28;20056;-81
2022/07/14 12:21:33;;;;;;;3.30;1.00;;;;;;;;;;5018739;28;20057;-81
2022/07/14 12:23:58;;;;;;;2.67;1.23;;;;;;;;;;5038165;28;20029;-81
2022/07/14 12:26:25;;;;;;;1.55;0.80;;;;;;;;;;5040714;28;20025;-82
2022/07/14 12:28:51;;;;;;;2.75;0.90;;;;;;;;;;5058555;28;20505;-80
2022/07/14 12:31:17;;;;;;;2.13;0.80;;;;;;;;;;5057683;28;20111;-82
2022/07/14 12:33:44;;;;;;;1.65;0.80;;;;;;;;;;5054178;28;20115;-82
2022/07/14 12:36:12;;;;;;;3.90;1.00;;;;;;;;;;5048744;28;20025;-83
2022/07/14 12:38:38;;;;;;;4.43;1.15;;;;;;;;;;5056007;28;20043;-84
2022/07/14 12:41:04;;;;;;;0.93;0.60;;;;;;;;;;5055078;28;20028;-81
2022/07/14 12:43:36;;;;;;;2.60;0.80;;;;;;;;;;5039425;28;20048;-81
2022/07/14 12:46:13;;;;;;;2.25;0.90;;;;;;;;;;5045397;28;20044;-82
2022/07/14 12:48:48;;;;;;;2.92;0.80;;;;;;;;;;5037801;28;20037;-81
2022/07/14 12:51:18;;;;;;;2.05;1.00;;;;;;;;;;5050023;28;20104;-81
2022/07/14 12:53:57;;;;;;;1.30;0.60;;;;;;;;;;5057652;28;20037;-82
2022/07/14 12:56:23;;;;;;;1.45;0.70;;;;;;;;;;5038715;28;20040;-81
2022/07/14 12:58:49;;;;;;;2.83;0.88;;;;;;;;;;5056019;28;20028;-81
2022/07/14 13:01:14;;;;;;;1.25;0.60;;;;;;;;;;5055078;28;20088;-81
2022/07/14 13:03:40;;;;;;;1.83;0.60;;;;;;;;;;5047942;28;20021;-80
2022/07/14 13:06:05;;;;;;;2.30;0.70;;;;;;;;;;5035675;28;20037;-82
2022/07/14 13:08:34;;;;;;;0.90;0.50;;;;;;;;;;5039985;28;20027;-83
2022/07/14 13:11:00;;;;;;;2.65;0.70;;;;;;;;;;5056481;28;20052;-81
2022/07/14 13:13:31;;;;;;;1.33;0.80;;;;;;;;;;5055634;28;20049;-81
2022/07/14 13:16:16;;;;;;;2.72;0.70;;;;;;;;;;5056163;28;20037;-84
2022/07/14 13:19:00;;;;;;;2.10;0.95;;;;;;;;;;5056072;28;20446;-81
2022/07/14 13:21:45;;;;;;;0.77;0.50;;;;;;;;;;5058138;28;20147;-81
2022/07/14 13:24:12;;;;;;;2.75;0.60;;;;;;;;;;5039448;28;20093;-82
2022/07/14 13:26:38;;;;;;;1.52;0.70;;;;;;;;;;5036715;28;20037;-82
2022/07/14 13:29:03;;;;;;;1.77;0.68;;;;;;;;;;5018865;28;20120;-82
2022/07/14 13:31:29;;;;;;;1.45;0.60;;;;;;;;;;5017061;28;20048;-81
2022/07/14 13:33:58;;;;;;;1.27;0.70;;;;;;;;;;5036819;28;20087;-83
2022/07/14 13:36:23;;;;;;;1.00;0.50;;;;;;;;;;5020797;28;20032;-80
2022/07/14 13:38:49;;;;;;;3.78;0.80;;;;;;;;;;5037521;28;20037;-81
2022/07/14 13:41:14;;;;;;;1.98;0.75;;;;;;;;;;5037015;28;20033;-81
2022/07/14 13:43:43;;;;;;;0.85;0.52;;;;;;;;;;5036755;28;20018;-82
2022/07/14 13:46:09;;;;;;;1.08;0.70;;;;;;;;;;5038137;28;20025;-80
2022/07/14 13:48:36;;;;;;;1.55;0.80;;;;;;;;;;5020335;28;20037;-81
2022/07/14 13:53:45;;;;;;;5.55;0.80;;;;;;;;;;5037089;28;20509;-80
2022/07/14 13:56:11;;;;;;;1.50;0.80;;;;;;;;;;5038984;28;20048;-81
2022/07/14 13:58:36;;;;;;;2.03;0.88;;;;;;;;;;5015108;28;20067;-81
2022/07/14 14:01:02;;;;;;;2.70;0.85;;;;;;;;;;5035250;28;20040;-82
2022/07/14 14:03:27;;;;;;;1.80;1.00;;;;;;;;;;5002090;28;20033;-80
2022/07/14 14:05:54;;;;;;;1.33;0.70;;;;;;;;;;5034332;28;20036;-82
2022/07/14 14:08:20;;;;;;;1.58;0.90;;;;;;;;;;5037831;28;20048;-80
2022/07/14 14:10:45;;;;;;;3.85;0.80;;;;;;;;;;5037164;28;20535;-82
2022/07/14 14:13:11;;;;;;;1.08;0.63;;;;;;;;;;5052146;28;20555;-81
2022/07/14 14:15:36;;;;;;;5.90;0.80;;;;;;;;;;5019656;28;20103;-81
2022/07/14 14:18:02;;;;;;;1.67;0.70;;;;;;;;;;5002356;28;20116;-81
2022/07/14 14:20:27;;;;;;;1.65;0.80;;;;;;;;;;5035169;28;20021;-82
2022/07/14 14:22:53;;;;;;;3.08;0.85;;;;;;;;;;5036770;28;20088;-81
2022/07/14 14:25:18;;;;;;;1.67;0.68;;;;;;;;;;5047763;28;20059;-82
2022/07/14 14:27:44;;;;;;;4.53;0.68;;;;;;;;;;5035889;28;20044;-81
2022/07/14 14:30:09;;;;;;;1.88;0.80;;;;;;;;;;5037100;28;20031;-82
2022/07/14 14:32:35;;;;;;;1.55;0.73;;;;;;;;;;5038125;28;20028;-81
2022/07/14 14:35:00;;;;;;;2.33;0.50;;;;;;;;;;5038190;28;20116;-82
2022/07/14 14:37:26;;;;;;;2.20;0.68;;;;;;;;;;5046831;28;20045;-83
2022/07/14 14:39:51;;;;;;;1.58;0.60;;;;;;;;;;5032212;28;20069;-81
2022/07/14 14:42:17;;;;;;;1.17;0.60;;;;;;;;;;5041626;28;20025;-79
2022/07/14 14:44:42;;;;;;;1.58;0.63;;;;;;;;;;5052541;28;20029;-77
2022/07/14 14:47:08;;;;;;;3.15;0.70;;;;;;;;;;5053840;28;20042;-82
2022/07/14 14:49:36;;;;;;;3.50;1.02;;;;;;;;;;5034529;28;20037;-85
2022/07/14 14:52:02;;;;;;;1.88;0.93;;;;;;;;;;5034947;28;20045;-80
2022/07/14 14:54:27;;;;;;;1.45;0.65;;;;;;;;;;5033053;28;20076;-79
2022/07/14 14:56:54;;;;;;;1.55;0.63;;;;;;;;;;5042279;28;20033;-79
2022/07/14 14:59:19;;;;;;;2.10;0.60;;;;;;;;;;5039896;28;20033;-79
2022/07/14 15:01:45;;;;;;;2.10;0.70;;;;;;;;;;5045743;28;20133;-81
2022/07/14 15:04:11;;;;;;;1.55;0.63;;;;;;;;;;5033853;28;20022;-79